Time;durP1;ratioP1;P1;durP2;ratioP2;P2;SDS_P1;SDS_P2;PMS_P1;PMS_P2;Temp;Humidity;BMP_temperature;BMP_pressure;BME280_temperature;BME280_humidity;BME280_pressure;Samples;Min_cycle;Max_cycle;Signal;HPM_P1;HPM_P2
2023/07/22 00:00:05;;;;;;;8.30;5.00;;;;;;;14.93;88.32;100088.00;105445;1254;83484;-47
2023/07/22 00:02:32;;;;;;;5.00;4.00;;;;;;;14.93;88.72;100082.74;105336;1255;72478;-47
2023/07/22 00:05:00;;;;;;;9.00;4.70;;;;;;;14.92;88.86;100087.74;105470;1257;69855;-48
2023/07/22 00:07:27;;;;;;;7.20;4.70;;;;;;;14.87;88.49;100092.80;105502;1254;69986;-47
2023/07/22 00:09:54;;;;;;;5.80;4.10;;;;;;;14.77;88.33;100093.21;105451;1254;74770;-48
2023/07/22 00:12:25;;;;;;;4.70;4.10;;;;;;;14.71;88.72;100091.83;105423;1257;83284;-47
2023/07/22 00:14:53;;;;;;;5.10;3.50;;;;;;;14.65;88.99;100086.35;105459;1254;73896;-47
2023/07/22 00:17:24;;;;;;;5.50;4.00;;;;;;;14.63;89.18;100085.44;105523;1258;69934;-47
2023/07/22 00:19:51;;;;;;;4.70;3.80;;;;;;;14.62;89.54;100087.78;105508;1256;69966;-48
2023/07/22 00:22:20;;;;;;;6.10;4.10;;;;;;;14.62;89.86;100082.86;105469;1254;75032;-48
2023/07/22 00:24:47;;;;;;;5.00;3.90;;;;;;;14.64;90.36;100083.13;105464;1257;83369;-48
2023/07/22 00:27:14;;;;;;;5.80;4.40;;;;;;;14.64;90.64;100079.42;105491;1257;73903;-48
2023/07/22 00:29:41;;;;;;;5.30;4.50;;;;;;;14.67;91.04;100085.02;105441;1257;69901;-48
2023/07/22 00:32:08;;;;;;;5.20;3.80;;;;;;;14.69;91.02;100088.92;105357;1258;70073;-49
2023/07/22 00:34:36;;;;;;;4.20;3.40;;;;;;;14.68;90.75;100095.16;105466;1257;74811;-49
2023/07/22 00:37:03;;;;;;;4.20;3.80;;;;;;;14.65;90.68;100097.30;105549;1257;83250;-48
2023/07/22 00:39:30;;;;;;;4.40;3.60;;;;;;;14.61;90.80;100099.29;105420;1254;72926;-48
2023/07/22 00:41:57;;;;;;;6.60;3.70;;;;;;;14.61;91.15;100101.22;105436;1254;70056;-47
2023/07/22 00:44:24;;;;;;;5.50;3.60;;;;;;;14.61;91.33;100107.38;105389;1254;70060;-48
2023/07/22 00:46:55;;;;;;;6.00;3.80;;;;;;;14.63;91.67;100109.02;105357;1254;75098;-48
2023/07/22 00:49:23;;;;;;;5.20;3.70;;;;;;;14.63;91.47;100111.30;105206;1260;83283;-48
2023/07/22 00:51:50;;;;;;;5.10;3.80;;;;;;;14.63;91.82;100111.13;105497;1254;73910;-49
2023/07/22 00:54:17;;;;;;;4.30;3.40;;;;;;;14.65;92.04;100109.40;105417;1258;70024;-49
2023/07/22 00:56:44;;;;;;;6.30;4.10;;;;;;;14.64;92.05;100107.67;105408;1261;70072;-49
2023/07/22 00:59:12;;;;;;;5.00;3.60;;;;;;;14.66;92.16;100107.08;105533;1255;73788;-47
2023/07/22 01:01:40;;;;;;;6.60;3.80;;;;;;;14.65;92.27;100106.58;105543;1257;83224;-48
2023/07/22 01:04:07;;;;;;;4.40;3.20;;;;;;;14.62;92.02;100107.67;105409;1255;73669;-50
2023/07/22 01:06:35;;;;;;;5.40;3.20;;;;;;;14.56;91.94;100114.35;105413;1254;69926;-48
2023/07/22 01:09:02;;;;;;;4.40;3.40;;;;;;;14.52;92.05;100117.03;105471;1256;69941;-48
2023/07/22 01:11:29;;;;;;;5.50;3.80;;;;;;;14.51;92.71;100110.52;105552;1254;75114;-48
2023/07/22 01:13:59;;;;;;;5.50;3.70;;;;;;;14.55;93.22;100107.38;105512;1257;83440;-48
2023/07/22 01:16:27;;;;;;;3.70;3.40;;;;;;;14.56;92.92;100110.10;105521;1257;73626;-47
2023/07/22 01:18:54;;;;;;;5.60;3.60;;;;;;;14.57;92.97;100101.11;105481;1257;69975;-48
2023/07/22 01:21:23;;;;;;;5.70;3.90;;;;;;;14.58;92.97;100105.98;105456;1257;70690;-48
2023/07/22 01:23:51;;;;;;;4.90;4.00;;;;;;;14.58;92.84;100102.42;105522;1254;73876;-47
2023/07/22 01:26:19;;;;;;;4.60;4.00;;;;;;;14.60;93.09;100100.52;105513;1254;82560;-48
2023/07/22 01:28:46;;;;;;;5.10;4.10;;;;;;;14.63;93.21;100101.24;105481;1254;73540;-47
2023/07/22 01:31:13;;;;;;;6.00;4.20;;;;;;;14.63;93.04;100101.97;105473;1257;70258;-47
2023/07/22 01:33:40;;;;;;;5.70;3.90;;;;;;;14.64;93.21;100100.33;105462;1257;70049;-49
2023/07/22 01:36:07;;;;;;;6.40;4.00;;;;;;;14.64;93.01;100101.36;105390;1254;74722;-47
2023/07/22 01:38:35;;;;;;;5.00;3.80;;;;;;;14.62;93.01;100099.20;105476;1257;83230;-48
2023/07/22 01:41:02;;;;;;;4.70;3.90;;;;;;;14.62;93.11;100100.10;105483;1253;73548;-47
2023/07/22 01:43:29;;;;;;;3.80;3.40;;;;;;;14.61;93.17;100098.39;105341;1259;69873;-49
2023/07/22 01:45:56;;;;;;;4.00;3.60;;;;;;;14.59;93.17;100102.21;105459;1254;69909;-48
2023/07/22 01:48:23;;;;;;;3.90;3.40;;;;;;;14.56;92.95;100107.83;105425;1254;74840;-48
2023/07/22 01:50:50;;;;;;;5.30;4.40;;;;;;;14.51;92.94;100112.50;105504;1257;81322;-49
2023/07/22 01:53:18;;;;;;;4.50;3.80;;;;;;;14.48;93.10;100115.84;105455;1253;72957;-47
2023/07/22 01:55:45;;;;;;;4.90;3.80;;;;;;;14.45;93.10;100117.39;105461;1254;69989;-49
2023/07/22 01:58:12;;;;;;;3.80;3.40;;;;;;;14.43;93.01;100119.62;105485;1253;70005;-48
2023/07/22 02:00:39;;;;;;;3.80;3.40;;;;;;;14.41;93.13;100121.14;105415;1254;75165;-47
2023/07/22 02:03:06;;;;;;;4.10;3.60;;;;;;;14.37;92.91;100119.42;105466;1257;83316;-48
2023/07/22 02:05:34;;;;;;;4.20;3.40;;;;;;;14.33;92.80;100118.63;105563;1256;73694;-48
2023/07/22 02:08:01;;;;;;;5.90;3.50;;;;;;;14.30;93.00;100118.59;105381;1254;69874;-47
2023/07/22 02:10:28;;;;;;;4.60;3.30;;;;;;;14.26;92.80;100119.36;105433;1253;71788;-47
2023/07/22 02:12:55;;;;;;;3.80;3.30;;;;;;;14.24;93.08;100119.45;105336;1254;73722;-47
2023/07/22 02:15:24;;;;;;;4.30;3.40;;;;;;;14.22;93.06;100122.21;105471;1254;82424;-47
2023/07/22 02:17:51;;;;;;;3.80;3.20;;;;;;;14.19;93.05;100125.04;105487;1254;73485;-47
2023/07/22 02:20:18;;;;;;;4.30;3.50;;;;;;;14.16;93.20;100125.37;105524;1254;69884;-48
2023/07/22 02:22:45;;;;;;;4.40;3.40;;;;;;;14.15;93.24;100124.92;105481;1257;69911;-48
2023/07/22 02:25:12;;;;;;;4.50;3.60;;;;;;;14.14;93.36;100127.45;105435;1254;75147;-47
2023/07/22 02:27:40;;;;;;;4.50;4.00;;;;;;;14.10;93.17;100129.23;105468;1253;82404;-49
2023/07/22 02:30:11;;;;;;;4.10;3.70;;;;;;;14.07;93.36;100126.23;105439;1256;72635;-48
2023/07/22 02:32:41;;;;;;;4.60;3.90;;;;;;;14.04;93.65;100128.67;105459;1257;69999;-47
2023/07/22 02:35:08;;;;;;;5.40;4.10;;;;;;;14.04;93.96;100124.29;105528;1254;69976;-48
2023/07/22 02:37:37;;;;;;;4.70;4.20;;;;;;;14.05;94.08;100129.48;105381;1254;74823;-49
2023/07/22 02:40:11;;;;;;;4.50;4.00;;;;;;;14.03;94.08;100129.80;105480;1257;83181;-49
2023/07/22 02:42:39;;;;;;;5.40;4.30;;;;;;;14.02;94.31;100132.63;105471;1255;72581;-49
2023/07/22 02:45:09;;;;;;;6.10;4.20;;;;;;;14.00;93.94;100133.98;105483;1256;69939;-49
2023/07/22 02:47:36;;;;;;;6.00;4.20;;;;;;;13.99;94.34;100133.68;105452;1257;69962;-48
2023/07/22 02:50:04;;;;;;;4.10;3.60;;;;;;;13.98;94.24;100139.54;105500;1256;74932;-47
2023/07/22 02:52:32;;;;;;;4.90;4.20;;;;;;;13.95;94.14;100137.95;105545;1254;82760;-48
2023/07/22 02:55:08;;;;;;;5.00;3.90;;;;;;;13.93;93.99;100146.34;105397;1260;73537;-48
2023/07/22 02:57:35;;;;;;;4.80;4.00;;;;;;;13.92;94.32;100146.73;105478;1252;69868;-49
2023/07/22 03:00:07;;;;;;;5.10;3.80;;;;;;;13.92;94.27;100147.95;105476;1253;69917;-47
2023/07/22 03:02:38;;;;;;;5.90;3.80;;;;;;;13.93;94.66;100147.54;105485;1253;74785;-48
2023/07/22 03:05:09;;;;;;;4.90;3.70;;;;;;;13.94;94.66;100147.83;105493;1256;82963;-47
2023/07/22 03:07:37;;;;;;;5.40;4.00;;;;;;;13.94;94.37;100146.27;105390;1258;73695;-48
2023/07/22 03:10:08;;;;;;;5.60;4.00;;;;;;;13.94;94.42;100150.84;105484;1254;69935;-48
2023/07/22 03:12:36;;;;;;;6.30;3.50;;;;;;;13.93;94.58;100155.25;105530;1253;70076;-47
2023/07/22 03:15:04;;;;;;;4.50;2.90;;;;;;;13.93;94.59;100156.84;105541;1253;74878;-47
2023/07/22 03:17:31;;;;;;;4.10;3.60;;;;;;;13.94;94.67;100157.35;105530;1256;83250;-46
2023/07/22 03:19:58;;;;;;;7.60;3.90;;;;;;;13.95;94.72;100158.48;105489;1253;72588;-49
2023/07/22 03:22:25;;;;;;;5.80;3.10;;;;;;;13.96;94.79;100161.78;105377;1260;70047;-48
2023/07/22 03:24:51;;;;;;;4.00;3.40;;;;;;;13.97;94.64;100163.84;105351;1254;70006;-48
2023/07/22 03:27:18;;;;;;;4.30;3.20;;;;;;;13.97;94.48;100166.85;105473;1253;74761;-48
2023/07/22 03:29:45;;;;;;;3.00;2.70;;;;;;;13.98;94.67;100163.80;105478;1254;83541;-47
2023/07/22 03:32:12;;;;;;;5.70;3.40;;;;;;;13.99;94.44;100163.35;105461;1257;72668;-47
2023/07/22 03:34:40;;;;;;;4.30;3.50;;;;;;;14.02;94.45;100158.83;105477;1254;69994;-48
2023/07/22 03:37:09;;;;;;;3.40;2.70;;;;;;;14.05;94.12;100164.11;105477;1253;69959;-47
2023/07/22 03:39:36;;;;;;;5.60;3.40;;;;;;;14.08;94.29;100165.02;105440;1258;73780;-48
2023/07/22 03:42:03;;;;;;;3.90;3.30;;;;;;;14.12;94.24;100167.27;105408;1257;83202;-48
2023/07/22 03:44:31;;;;;;;6.40;3.10;;;;;;;14.14;94.03;100161.50;105496;1253;73778;-48
2023/07/22 03:46:59;;;;;;;3.70;3.00;;;;;;;14.17;94.04;100165.58;105465;1254;69992;-49
2023/07/22 03:49:26;;;;;;;4.10;3.10;;;;;;;14.18;93.89;100164.77;105518;1252;69895;-48
2023/07/22 03:51:53;;;;;;;4.30;3.60;;;;;;;14.20;93.79;100170.81;105483;1253;75145;-48
2023/07/22 03:54:20;;;;;;;7.40;3.90;;;;;;;14.21;93.61;100171.29;105446;1257;83366;-49
2023/07/22 03:56:47;;;;;;;3.80;3.30;;;;;;;14.22;93.54;100173.72;105488;1252;72637;-48
2023/07/22 03:59:14;;;;;;;5.00;3.50;;;;;;;14.24;93.64;100176.22;105494;1257;69913;-47
2023/07/22 04:01:42;;;;;;;4.20;3.10;;;;;;;14.27;93.87;100173.79;105416;1257;69932;-48
2023/07/22 04:04:09;;;;;;;5.80;3.20;;;;;;;14.31;93.82;100177.27;105476;1253;74799;-48
2023/07/22 04:06:36;;;;;;;5.40;3.50;;;;;;;14.32;93.70;100182.46;105374;1253;83435;-48
2023/07/22 04:09:03;;;;;;;5.80;3.90;;;;;;;14.33;93.36;100187.52;105439;1253;72598;-47
2023/07/22 04:11:30;;;;;;;4.60;3.40;;;;;;;14.34;93.39;100191.48;105401;1257;69938;-48
2023/07/22 04:13:57;;;;;;;6.80;4.20;;;;;;;14.35;93.33;100189.84;105405;1253;70107;-48
2023/07/22 04:16:24;;;;;;;5.30;3.10;;;;;;;14.37;93.27;100187.64;105508;1256;75021;-47
2023/07/22 04:18:52;;;;;;;4.40;3.50;;;;;;;14.38;93.18;100194.43;105461;1257;83578;-48
2023/07/22 04:21:19;;;;;;;7.40;3.40;;;;;;;14.39;92.88;100188.23;105427;1252;72535;-48
2023/07/22 04:23:46;;;;;;;6.10;3.10;;;;;;;14.40;92.97;100191.16;105443;1257;69998;-48
2023/07/22 04:26:13;;;;;;;5.60;3.40;;;;;;;14.43;93.03;100197.34;105490;1254;69976;-48
2023/07/22 04:28:40;;;;;;;5.80;3.70;;;;;;;14.45;92.91;100197.05;105538;1253;73812;-48
2023/07/22 04:31:09;;;;;;;3.90;3.00;;;;;;;14.47;92.92;100193.55;105498;1255;83569;-47
2023/07/22 04:33:36;;;;;;;5.00;3.40;;;;;;;14.50;92.84;100196.23;105563;1253;73550;-48
2023/07/22 04:36:03;;;;;;;5.70;3.70;;;;;;;14.51;92.57;100195.95;105522;1254;69950;-48
2023/07/22 04:38:30;;;;;;;5.00;3.10;;;;;;;14.54;92.54;100196.76;105426;1257;69935;-48
2023/07/22 04:40:57;;;;;;;4.80;3.00;;;;;;;14.56;92.56;100198.59;105508;1253;73764;-48
2023/07/22 04:43:24;;;;;;;5.50;3.50;;;;;;;14.58;92.57;100199.48;105543;1253;82378;-48
2023/07/22 04:45:51;;;;;;;4.60;3.10;;;;;;;14.61;92.31;100202.66;105508;1253;73720;-48
2023/07/22 04:48:23;;;;;;;5.70;3.70;;;;;;;14.63;92.19;100203.60;105478;1254;70015;-48
2023/07/22 04:50:50;;;;;;;4.60;3.60;;;;;;;14.65;92.31;100201.02;105507;1253;69891;-48
2023/07/22 04:53:18;;;;;;;6.30;3.80;;;;;;;14.67;92.13;100208.13;105488;1253;74196;-48
2023/07/22 04:55:45;;;;;;;5.60;3.50;;;;;;;14.69;91.97;100208.36;105553;1257;83379;-49
2023/07/22 04:58:12;;;;;;;5.80;4.30;;;;;;;14.70;92.06;100206.70;105531;1253;73875;-50
2023/07/22 05:00:39;;;;;;;3.80;3.40;;;;;;;14.73;91.94;100212.35;105328;1255;69922;-49
2023/07/22 05:03:07;;;;;;;5.40;3.70;;;;;;;14.75;91.92;100213.45;105469;1257;69936;-48
2023/07/22 05:05:35;;;;;;;3.80;3.40;;;;;;;14.78;91.83;100219.13;105503;1253;74928;-47
2023/07/22 05:08:02;;;;;;;5.30;3.70;;;;;;;14.81;91.83;100222.62;105443;1256;83223;-47
2023/07/22 05:10:29;;;;;;;4.40;3.80;;;;;;;14.83;91.60;100226.58;105461;1257;73650;-48
2023/07/22 05:12:59;;;;;;;5.00;3.70;;;;;;;14.86;91.56;100226.23;105387;1253;69859;-48
2023/07/22 05:15:26;;;;;;;4.90;3.70;;;;;;;14.88;91.56;100223.98;105610;1253;69889;-48
2023/07/22 05:17:53;;;;;;;5.30;3.30;;;;;;;14.92;91.70;100231.13;105578;1254;74928;-46
2023/07/22 05:20:20;;;;;;;4.10;3.60;;;;;;;14.96;91.61;100233.87;105540;1257;82492;-46
2023/07/22 05:22:48;;;;;;;5.50;3.60;;;;;;;15.00;91.39;100235.59;105521;1254;72613;-47
2023/07/22 05:25:15;;;;;;;5.80;3.70;;;;;;;15.04;91.40;100236.78;105528;1253;69877;-46
2023/07/22 05:27:42;;;;;;;5.60;3.90;;;;;;;15.07;91.25;100248.02;105357;1253;71582;-47
2023/07/22 05:30:09;;;;;;;4.60;4.00;;;;;;;15.09;91.00;100246.70;105477;1253;74716;-46
2023/07/22 05:32:55;;;;;;;5.30;3.50;;;;;;;15.11;91.07;100250.24;105523;1257;83302;-47
2023/07/22 05:35:22;;;;;;;4.30;3.40;;;;;;;15.13;90.92;100249.79;105509;1257;74153;-46
2023/07/22 05:37:49;;;;;;;4.70;3.40;;;;;;;15.16;91.11;100245.20;105440;1257;70135;-48
2023/07/22 05:40:16;;;;;;;4.30;3.40;;;;;;;15.22;91.22;100246.11;105683;1257;69932;-48
2023/07/22 05:42:43;;;;;;;4.80;3.70;;;;;;;15.26;90.76;100253.46;105452;1253;74890;-48
2023/07/22 05:45:13;;;;;;;6.10;3.80;;;;;;;15.28;90.73;100254.03;105554;1257;83696;-48
2023/07/22 05:47:40;;;;;;;;;;;;;;;15.30;90.54;100257.97;105438;1253;73683;-49
2023/07/22 05:50:07;;;;;;;6.50;3.90;;;;;;;15.33;90.64;100260.77;105548;1253;69978;-48
2023/07/22 05:52:34;;;;;;;7.60;4.00;;;;;;;15.38;90.56;100265.40;105618;1253;69988;-47
2023/07/22 05:55:01;;;;;;;4.40;3.80;;;;;;;15.45;90.52;100277.51;105374;1254;74709;-48
2023/07/22 05:57:28;;;;;;;6.10;4.30;;;;;;;15.52;90.33;100283.42;105389;1256;83451;-47
2023/07/22 05:59:58;;;;;;;6.00;3.90;;;;;;;15.57;89.77;100279.80;105492;1258;74882;-48
2023/07/22 06:02:39;;;;;;;6.20;3.80;;;;;;;15.57;89.67;100279.42;105409;1257;69936;-49
2023/07/22 06:05:06;;;;;;;4.80;3.50;;;;;;;15.60;89.58;100279.58;105395;1257;70581;-48
2023/07/22 06:07:34;;;;;;;4.80;3.80;;;;;;;15.68;89.61;100278.27;105646;1253;73662;-48
2023/07/22 06:10:01;;;;;;;4.20;3.60;;;;;;;15.76;89.79;100278.67;105595;1257;83267;-48
2023/07/22 06:12:28;;;;;;;4.70;3.50;;;;;;;15.88;89.64;100286.58;105636;1253;73887;-48
2023/07/22 06:14:55;;;;;;;4.70;3.90;;;;;;;15.94;89.20;100288.69;105513;1253;70003;-48
2023/07/22 06:17:22;;;;;;;5.90;3.70;;;;;;;15.94;88.81;100292.19;105446;1253;69970;-50
2023/07/22 06:19:49;;;;;;;7.40;4.00;;;;;;;15.96;88.53;100291.00;105555;1253;74896;-48
2023/07/22 06:22:16;;;;;;;3.60;3.30;;;;;;;15.97;88.46;100295.33;105545;1256;83329;-48
2023/07/22 06:24:43;;;;;;;4.70;3.40;;;;;;;15.99;88.26;100295.79;105708;1257;73850;-49
2023/07/22 06:27:10;;;;;;;4.50;3.80;;;;;;;16.02;87.90;100295.61;105534;1257;70108;-48
2023/07/22 06:29:38;;;;;;;4.70;3.60;;;;;;;16.02;87.69;100296.14;105489;1257;70015;-48
2023/07/22 06:32:05;;;;;;;7.60;4.40;;;;;;;16.07;87.79;100295.30;105595;1254;75829;-47
2023/07/22 06:34:33;;;;;;;4.10;3.70;;;;;;;16.16;87.89;100303.52;105495;1253;83187;-48
2023/07/22 06:36:59;;;;;;;4.20;3.50;;;;;;;16.22;87.18;100307.10;105377;1253;72425;-48
2023/07/22 06:39:27;;;;;;;3.70;3.30;;;;;;;16.24;86.90;100309.59;105377;1254;70019;-47
2023/07/22 06:41:54;;;;;;;6.40;3.90;;;;;;;16.28;86.77;100309.49;105508;1257;70025;-48
2023/07/22 06:44:21;;;;;;;8.10;3.50;;;;;;;16.33;86.46;100319.94;105585;1253;73645;-49
2023/07/22 06:46:48;;;;;;;5.20;3.40;;;;;;;16.41;86.18;100321.38;105518;1256;83656;-47
2023/07/22 06:49:15;;;;;;;4.70;3.30;;;;;;;16.47;85.86;100322.95;105394;1255;73463;-48
2023/07/22 06:51:42;;;;;;;4.60;3.40;;;;;;;16.53;85.59;100325.05;105397;1257;70424;-49
2023/07/22 06:54:09;;;;;;;12.20;3.90;;;;;;;16.53;84.92;100323.65;105429;1257;70239;-48
2023/07/22 06:56:36;;;;;;;3.30;2.90;;;;;;;16.52;84.71;100319.79;105417;1254;73719;-48
2023/07/22 06:59:03;;;;;;;7.10;3.00;;;;;;;16.51;84.54;100325.01;105369;1256;83393;-48
2023/07/22 07:01:29;;;;;;;3.70;3.10;;;;;;;16.43;84.20;100327.63;105389;1257;73558;-47
2023/07/22 07:03:56;;;;;;;5.20;3.10;;;;;;;16.38;84.18;100331.62;105404;1257;69945;-47
2023/07/22 07:06:24;;;;;;;4.40;3.10;;;;;;;16.37;84.19;100332.58;105408;1257;70013;-49
2023/07/22 07:08:52;;;;;;;5.30;2.90;;;;;;;16.40;84.38;100335.71;105394;1257;73702;-51
2023/07/22 07:11:19;;;;;;;3.80;3.10;;;;;;;16.45;84.20;100337.90;105678;1255;83531;-47
2023/07/22 07:13:46;;;;;;;3.10;2.70;;;;;;;16.49;83.94;100335.48;105416;1256;73829;-47
2023/07/22 07:16:31;;;;;;;5.30;3.00;;;;;;;16.56;83.97;100336.35;105610;1253;69894;-51
2023/07/22 07:18:59;;;;;;;5.90;2.80;;;;;;;16.61;83.66;100331.40;105644;1255;71182;-47
2023/07/22 07:21:27;;;;;;;5.30;2.80;;;;;;;16.66;83.85;100335.84;105576;1253;74714;-47
2023/07/22 07:23:54;;;;;;;3.10;2.80;;;;;;;16.75;83.60;100338.65;105660;1257;82256;-47
2023/07/22 07:26:22;;;;;;;4.70;2.60;;;;;;;16.85;83.47;100341.73;105391;1254;73846;-49
2023/07/22 07:28:52;;;;;;;3.40;2.80;;;;;;;16.95;83.35;100343.75;105485;1254;70041;-52
2023/07/22 07:31:19;;;;;;;7.40;3.30;;;;;;;17.04;83.04;100346.70;105619;1254;69897;-47
2023/07/22 07:33:47;;;;;;;3.90;2.90;;;;;;;17.16;82.79;100350.36;105767;1257;74990;-50
2023/07/22 07:36:14;;;;;;;5.90;2.70;;;;;;;17.23;81.88;100355.04;105520;1253;83455;-47
2023/07/22 07:38:42;;;;;;;5.70;2.60;;;;;;;17.27;81.57;100354.41;105617;1253;73616;-48
2023/07/22 07:41:11;;;;;;;4.00;2.40;;;;;;;17.39;81.30;100357.49;105401;1252;69984;-47
2023/07/22 07:43:39;;;;;;;5.30;2.40;;;;;;;17.47;80.78;100360.84;105540;1257;69983;-47
2023/07/22 07:46:27;;;;;;;2.40;2.10;;;;;;;17.51;80.46;100363.04;105396;1253;186294;-47
2023/07/22 07:48:58;;;;;;;3.20;2.30;;;;;;;17.55;79.95;100371.64;105494;1257;83252;-48
2023/07/22 07:51:27;;;;;;;3.40;2.30;;;;;;;17.53;79.42;100369.26;105542;1256;72138;-46
2023/07/22 07:53:54;;;;;;;4.30;2.20;;;;;;;17.65;79.87;100372.02;105475;1257;69935;-46
2023/07/22 07:56:22;;;;;;;4.00;2.20;;;;;;;17.81;79.68;100372.55;105544;1257;69933;-47
2023/07/22 07:58:50;;;;;;;6.00;2.80;;;;;;;17.89;78.92;100376.46;105458;1253;74913;-46
2023/07/22 08:01:17;;;;;;;2.60;2.40;;;;;;;17.93;77.86;100378.65;105488;1256;83692;-47
2023/07/22 08:03:44;;;;;;;4.20;2.20;;;;;;;17.99;77.61;100372.18;105460;1257;73564;-46
2023/07/22 08:06:12;;;;;;;3.70;2.30;;;;;;;18.15;77.60;100377.50;105542;1254;69868;-66
2023/07/22 08:08:40;;;;;;;2.80;2.10;;;;;;;18.31;77.13;100378.84;105519;1257;69144;-65
2023/07/22 08:11:15;;;;;;;3.00;2.30;;;;;;;18.37;76.47;100382.65;105495;1255;75226;-66
2023/07/22 08:13:43;;;;;;;3.20;2.30;;;;;;;18.38;75.75;100380.88;105479;1257;83295;-65
2023/07/22 08:16:12;;;;;;;4.00;2.00;;;;;;;18.47;75.66;100381.11;105482;1253;73620;-66
2023/07/22 08:18:40;;;;;;;2.30;1.90;;;;;;;18.54;75.01;100383.79;105493;1253;69153;-65
2023/07/22 08:21:07;;;;;;;3.10;2.10;;;;;;;18.52;73.91;100379.19;105460;1257;69123;-65
2023/07/22 08:23:36;;;;;;;2.00;1.80;;;;;;;18.53;73.39;100379.60;105512;1254;74729;-66
2023/07/22 08:26:07;;;;;;;2.80;1.80;;;;;;;18.58;73.43;100378.73;105510;1257;83500;-66
2023/07/22 08:28:34;;;;;;;7.00;2.20;;;;;;;18.71;73.21;100387.16;105472;1253;73588;-64
2023/07/22 08:31:01;;;;;;;3.40;2.10;;;;;;;18.73;72.21;100384.88;105507;1253;69186;-65
2023/07/22 08:33:29;;;;;;;2.00;1.80;;;;;;;18.77;72.37;100377.61;105500;1257;69227;-65
2023/07/22 08:36:08;;;;;;;3.60;2.20;;;;;;;18.93;72.56;100382.96;105488;1253;75083;-66
2023/07/22 08:38:36;;;;;;;3.40;1.50;;;;;;;19.04;71.75;100382.70;105463;1257;83212;-65
2023/07/22 08:41:02;;;;;;;3.20;2.00;;;;;;;19.17;71.68;100382.70;105444;1253;72721;-66
2023/07/22 08:43:30;;;;;;;2.60;1.80;;;;;;;19.28;71.11;100384.14;105475;1253;69163;-65
2023/07/22 08:46:00;;;;;;;7.60;1.80;;;;;;;19.33;70.37;100380.20;105554;1257;69159;-66
2023/07/22 08:48:32;;;;;;;5.20;2.30;;;;;;;19.45;69.94;100387.36;105486;1253;74976;-65
2023/07/22 08:51:07;;;;;;;3.50;2.10;;;;;;;19.49;68.95;100386.00;105516;1253;82783;-65
2023/07/22 08:53:34;;;;;;;4.40;2.10;;;;;;;19.55;68.66;100390.66;105418;1253;73599;-66
2023/07/22 08:56:01;;;;;;;2.60;2.00;;;;;;;19.66;68.36;100394.30;105431;1253;69056;-66
2023/07/22 08:58:29;;;;;;;2.90;2.10;;;;;;;19.68;67.78;100397.88;105507;1257;69267;-65
2023/07/22 09:00:57;;;;;;;3.70;2.30;;;;;;;19.62;66.62;100402.58;105463;1257;73867;-65
2023/07/22 09:03:24;;;;;;;5.10;2.40;;;;;;;19.65;66.02;100405.68;105548;1252;83459;-67
2023/07/22 09:05:52;;;;;;;2.70;2.10;;;;;;;19.72;65.11;100408.38;105477;1253;73677;-66
2023/07/22 09:08:19;;;;;;;2.50;2.10;;;;;;;19.73;64.80;100410.42;105464;1252;69179;-66
2023/07/22 09:10:46;;;;;;;3.20;2.60;;;;;;;19.65;64.30;100411.36;105487;1253;69157;-66
2023/07/22 09:13:14;;;;;;;2.90;2.30;;;;;;;19.60;64.07;100415.27;105456;1253;74641;-66
2023/07/22 09:15:42;;;;;;;4.50;2.60;;;;;;;19.67;64.05;100409.83;105503;1257;82536;-66
2023/07/22 09:18:09;;;;;;;4.30;2.60;;;;;;;19.81;64.20;100411.75;105484;1253;73624;-66
2023/07/22 09:20:36;;;;;;;3.50;2.90;;;;;;;19.93;63.76;100410.91;105403;1253;69060;-65
2023/07/22 09:23:03;;;;;;;2.70;2.30;;;;;;;20.00;63.24;100413.87;105452;1257;69117;-65
2023/07/22 09:25:42;;;;;;;5.50;2.60;;;;;;;20.06;62.89;100412.55;105470;1253;74699;-66
2023/07/22 09:28:09;;;;;;;4.30;2.60;;;;;;;20.07;61.56;100418.86;105541;1257;83262;-67
2023/07/22 09:30:38;;;;;;;3.70;3.00;;;;;;;20.04;60.97;100415.35;105454;1257;72859;-65
2023/07/22 09:33:07;;;;;;;3.60;2.70;;;;;;;19.99;60.22;100414.11;105447;1257;69190;-66
2023/07/22 09:35:49;;;;;;;4.20;3.00;;;;;;;19.94;59.14;100417.74;105617;1257;69130;-66
2023/07/22 09:38:24;;;;;;;4.90;2.70;;;;;;;19.91;59.38;100411.00;105452;1253;74769;-66
2023/07/22 09:40:52;;;;;;;4.20;2.90;;;;;;;20.02;59.45;100417.64;105524;1257;83124;-66
2023/07/22 09:43:23;;;;;;;4.20;2.50;;;;;;;20.07;59.17;100414.25;105446;1253;73669;-67
2023/07/22 09:45:50;;;;;;;3.80;2.80;;;;;;;20.20;58.53;100409.34;105457;1257;69204;-66
2023/07/22 09:48:17;;;;;;;3.30;2.40;;;;;;;20.36;58.48;100404.03;105445;1253;69564;-66
2023/07/22 09:50:44;;;;;;;5.10;2.60;;;;;;;20.61;58.39;100414.84;105467;1253;74933;-66
2023/07/22 09:53:15;;;;;;;3.10;2.40;;;;;;;20.89;58.01;100411.60;105420;1253;83394;-66
2023/07/22 09:55:43;;;;;;;4.50;2.30;;;;;;;21.04;56.70;100410.55;105432;1253;73597;-66
2023/07/22 09:58:10;;;;;;;4.00;2.10;;;;;;;21.05;55.49;100408.02;105523;1253;69156;-66
2023/07/22 10:00:38;;;;;;;2.70;2.50;;;;;;;20.99;55.31;100407.95;105451;1257;69306;-66
2023/07/22 10:03:09;;;;;;;5.10;2.20;;;;;;;21.02;54.84;100402.73;105501;1257;73701;-66
2023/07/22 10:05:38;;;;;;;5.30;2.40;;;;;;;21.20;54.87;100403.26;105528;1256;83664;-66
2023/07/22 10:08:06;;;;;;;3.70;2.60;;;;;;;21.33;54.32;100405.02;105555;1253;73888;-66
2023/07/22 10:10:40;;;;;;;3.90;2.40;;;;;;;21.59;54.31;100407.47;105471;1253;69128;-65
2023/07/22 10:13:07;;;;;;;6.00;2.40;;;;;;;21.76;53.70;100407.73;105491;1253;69540;-65
2023/07/22 10:15:35;;;;;;;4.30;2.10;;;;;;;21.73;53.15;100407.02;105462;1256;73677;-66
2023/07/22 10:18:03;;;;;;;3.80;2.10;;;;;;;21.78;53.00;100401.98;105512;1258;83160;-67
2023/07/22 10:20:34;;;;;;;3.80;2.40;;;;;;;22.03;52.96;100399.56;105436;1253;73605;-65
2023/07/22 10:23:01;;;;;;;3.40;2.30;;;;;;;22.34;52.40;100394.58;105476;1252;69132;-67
2023/07/22 10:25:28;;;;;;;4.20;2.40;;;;;;;22.54;51.61;100399.14;105548;1253;69180;-66
2023/07/22 10:27:55;;;;;;;3.90;2.60;;;;;;;22.59;51.14;100396.92;105459;1253;74851;-67
2023/07/22 10:30:22;;;;;;;4.70;2.40;;;;;;;22.60;51.08;100399.08;105511;1253;83563;-66
2023/07/22 10:32:51;;;;;;;2.90;2.50;;;;;;;22.68;50.92;100402.02;105477;1256;74132;-67
2023/07/22 10:35:42;;;;;;;5.30;2.30;;;;;;;22.56;50.43;100399.48;105451;1257;69622;-66
2023/07/22 10:38:12;;;;;;;2.70;2.20;;;;;;;22.62;50.45;100399.14;105404;1257;69203;-69
2023/07/22 10:40:53;;;;;;;2.60;2.10;;;;;;;23.01;50.99;100396.23;105498;1256;73553;-65
2023/07/22 10:43:33;;;;;;;4.90;2.50;;;;;;;23.39;50.74;100396.20;105453;1258;83498;-67
2023/07/22 10:46:10;;;;;;;3.80;2.50;;;;;;;23.88;50.20;100398.35;105425;1253;72681;-66
2023/07/22 10:48:39;;;;;;;3.50;2.30;;;;;;;23.95;48.79;100400.94;105547;1253;69135;-67
2023/07/22 10:51:17;;;;;;;4.40;2.70;;;;;;;24.18;48.48;100400.52;105460;1259;69118;-67
2023/07/22 10:53:48;;;;;;;3.90;2.30;;;;;;;24.09;47.32;100404.17;105449;1258;74844;-65
2023/07/22 10:56:18;;;;;;;6.40;2.30;;;;;;;23.80;47.40;100399.62;105521;1256;83365;-65
2023/07/22 10:58:48;;;;;;;3.60;2.60;;;;;;;23.88;47.55;100400.66;105503;1257;73887;-64
2023/07/22 11:01:28;;;;;;;8.00;2.10;;;;;;;24.32;47.32;100397.78;105421;1253;69069;-66
2023/07/22 11:04:18;;;;;;;3.50;1.80;;;;;;;24.72;45.96;100396.86;105522;1257;69118;-69
2023/07/22 11:06:48;;;;;;;5.00;1.90;;;;;;;25.07;45.06;100396.69;105481;1251;74714;-70
2023/07/22 11:09:29;;;;;;;3.40;1.90;;;;;;;25.39;44.56;100400.84;105464;1258;83522;-70
2023/07/22 11:12:22;;;;;;;3.30;2.00;;;;;;;25.47;43.28;100394.14;105453;1253;73847;-70
2023/07/22 11:14:50;;;;;;;5.00;2.10;;;;;;;25.55;43.19;100398.02;105481;1253;69157;-70
2023/07/22 11:17:22;;;;;;;3.10;1.90;;;;;;;25.44;43.07;100401.95;105485;1258;69668;-69
2023/07/22 11:19:49;;;;;;;3.00;2.10;;;;;;;25.37;42.33;100403.86;105399;1253;75323;-69
2023/07/22 11:22:16;;;;;;;3.20;2.20;;;;;;;25.25;41.97;100404.02;105505;1259;83633;-69